Terminal Aerodrome Forecast
Issued by NWS

Home | Current Version | Previous Version | Text Only | Print | Product List | Glossary On
Versions: 1 2 3 4 5 6 7 8 9 10 11 12 13 14 15 16 17
503
FTUS44 KBMX 301750 RRA
TAFMGM
TAF
KMGM 301750Z 3018/0118 17010G18KT P6SM BKN045 OVC150
     FM302000 17013G22KT P6SM VCSH OVC040
     FM302200 17015G24KT 4SM TSRA BR BKN025CB OVC120
      TEMPO 3022/3024 24020G27KT 2SM TSRA BR OVC015CB
     FM011000 24008KT P6SM -RA OVC050
     FM011500 25010G18KT P6SM OVC050=

USA.gov is the U.S. government's official web portal to all federal, state and local government web resources and services.